createdAt,value
2023-03-27T00:00:27.303Z,6.01
2023-03-27T00:05:31.330Z,6.03
2023-03-27T00:10:34.102Z,5.96
2023-03-27T00:15:37.523Z,5.97
2023-03-27T00:20:42.500Z,5.88
2023-03-27T00:25:47.490Z,5.82
2023-03-27T00:30:50.234Z,5.64
2023-03-27T00:35:55.037Z,5.74
2023-03-27T00:40:57.922Z,5.54
2023-03-27T00:46:09.014Z,5.24
2023-03-27T00:51:13.628Z,5.20
2023-03-27T00:56:16.816Z,5.33
2023-03-27T01:01:21.092Z,5.54
2023-03-27T01:06:26.340Z,5.41
2023-03-27T01:11:39.274Z,5.60
2023-03-27T01:16:50.266Z,5.20
2023-03-27T01:22:24.954Z,5.43
2023-03-27T01:27:44.051Z,5.61
2023-03-27T01:33:09.495Z,5.56
2023-03-27T01:38:45.404Z,5.60
2023-03-27T01:43:57.563Z,5.62
2023-03-27T01:49:05.547Z,5.51
2023-03-27T01:54:13.541Z,5.03
2023-03-27T01:59:22.817Z,5.54
2023-03-27T02:04:32.932Z,5.52
2023-03-27T02:09:38.993Z,5.07
2023-03-27T02:14:49.151Z,5.55
2023-03-27T02:19:57.303Z,5.38
2023-03-27T02:25:00.507Z,5.48
2023-03-27T02:30:12.053Z,5.47
2023-03-27T02:35:28.357Z,4.47
2023-03-27T02:40:40.932Z,4.84
2023-03-27T02:46:10.622Z,5.36
2023-03-27T02:51:18.122Z,5.33
2023-03-27T02:56:23.960Z,4.92
2023-03-27T03:01:32.624Z,5.16
2023-03-27T03:06:57.172Z,5.07
2023-03-27T03:12:00.653Z,5.31
2023-03-27T03:17:04.691Z,5.24
2023-03-27T03:22:08.076Z,5.34
2023-03-27T03:27:12.631Z,5.18
2023-03-27T03:32:24.162Z,5.05
2023-03-27T03:37:29.298Z,4.28
2023-03-27T03:42:33.709Z,5.02
2023-03-27T03:47:40.607Z,5.00
2023-03-27T03:52:43.622Z,5.04
2023-03-27T03:57:48.049Z,5.04
2023-03-27T04:02:58.595Z,5.03
2023-03-27T04:08:02.654Z,4.87
2023-03-27T04:13:27.320Z,5.26
2023-03-27T04:18:41.322Z,5.37
2023-03-27T04:23:51.208Z,5.24
2023-03-27T04:29:01.021Z,5.33
2023-03-27T04:34:26.063Z,5.31
2023-03-27T04:39:47.786Z,5.11
2023-03-27T04:44:52.306Z,4.89
2023-03-27T04:49:59.227Z,5.24
2023-03-27T04:55:07.872Z,5.36
2023-03-27T05:00:19.939Z,5.08
2023-03-27T05:05:25.068Z,4.77
2023-03-27T05:10:30.850Z,5.48
2023-03-27T05:15:35.530Z,5.36
2023-03-27T05:20:43.785Z,3.71
2023-03-27T05:26:00.196Z,5.55
2023-03-27T05:31:15.724Z,5.54
2023-03-27T05:36:31.217Z,2.21
2023-03-27T05:41:36.929Z,5.29
2023-03-27T05:46:43.412Z,5.43
2023-03-27T05:51:54.452Z,5.51
2023-03-27T05:56:57.516Z,5.09
2023-03-27T06:02:01.526Z,5.63
2023-03-27T06:07:18.974Z,5.60
2023-03-27T06:12:22.036Z,5.67
2023-03-27T06:17:31.488Z,4.51
2023-03-27T06:22:40.112Z,5.35
2023-03-27T06:27:43.537Z,5.28
2023-03-27T06:32:54.224Z,4.52
2023-03-27T06:38:00.628Z,5.60
2023-03-27T06:43:06.068Z,5.60
2023-03-27T06:48:25.053Z,5.60
2023-03-27T06:53:37.382Z,6.06
2023-03-27T06:58:41.610Z,5.58
2023-03-27T07:03:44.695Z,5.56
2023-03-27T07:09:07.981Z,6.14
2023-03-27T07:14:11.032Z,5.26
2023-03-27T07:19:13.798Z,5.47
2023-03-27T07:24:21.195Z,5.69
2023-03-27T07:29:23.998Z,6.36
2023-03-27T07:34:31.060Z,6.14
2023-03-27T07:39:41.049Z,6.41
2023-03-27T07:44:44.562Z,6.44
2023-03-27T07:49:47.277Z,6.33
2023-03-27T07:54:57.828Z,6.48
2023-03-27T08:00:13.365Z,6.59
2023-03-27T08:05:20.138Z,6.60
2023-03-27T08:10:35.514Z,6.62
2023-03-27T08:15:38.750Z,6.56
2023-03-27T08:20:57.065Z,6.95
2023-03-27T08:26:03.624Z,7.03
2023-03-27T08:31:14.619Z,7.16
2023-03-27T08:36:19.940Z,7.14
2023-03-27T13:39:26.537Z,5.86
2023-03-27T13:45:07.242Z,6.82
2023-03-27T13:50:34.554Z,6.69
2023-03-27T13:56:23.048Z,7.92
2023-03-27T14:02:00.032Z,6.36
2023-03-27T14:07:40.391Z,7.88
2023-03-27T14:12:59.247Z,5.08
2023-03-27T14:18:34.044Z,8.75
2023-03-27T14:23:50.343Z,8.88
2023-03-27T14:29:11.120Z,9.26
2023-03-27T14:34:24.766Z,9.44
2023-03-27T14:39:54.131Z,9.26
2023-03-27T14:45:20.634Z,8.55
2023-03-27T14:50:49.994Z,9.51
2023-03-27T14:56:29.043Z,7.00
2023-03-27T15:02:10.860Z,9.49
2023-03-27T15:07:32.769Z,7.64
2023-03-27T15:12:56.794Z,7.91
2023-03-27T15:18:47.397Z,6.23
2023-03-27T15:24:01.577Z,7.87
2023-03-27T15:29:23.088Z,9.14
2023-03-27T15:35:22.200Z,9.28
2023-03-27T15:40:54.013Z,6.46
2023-03-27T15:46:02.716Z,8.19
2023-03-27T15:58:41.737Z,9.21
2023-03-27T16:03:58.539Z,7.32
2023-03-27T16:09:41.337Z,6.65
2023-03-27T16:15:08.454Z,8.46
2023-03-27T16:20:51.851Z,7.94
2023-03-27T16:26:05.884Z,7.29
2023-03-27T16:31:15.804Z,7.08
2023-03-27T16:36:24.585Z,7.74
2023-03-27T16:41:27.676Z,7.24
2023-03-27T16:46:34.222Z,6.18
2023-03-27T16:51:39.243Z,6.06
2023-03-27T16:56:42.357Z,6.85
2023-03-27T17:01:54.166Z,5.34
2023-03-27T17:07:00.098Z,5.20
2023-03-27T17:12:13.388Z,4.16
2023-03-27T17:17:21.040Z,6.80
2023-03-27T17:22:29.827Z,6.80
2023-03-27T17:27:39.748Z,6.79
2023-03-27T17:32:45.970Z,4.86
2023-03-27T17:37:50.959Z,5.61
2023-03-27T17:42:59.765Z,5.72
2023-03-27T17:48:07.195Z,7.03
2023-03-27T17:59:33.893Z,5.97
2023-03-27T18:04:43.777Z,6.68
2023-03-27T18:09:51.798Z,5.44
2023-03-27T18:14:57.540Z,4.94
2023-03-27T18:20:10.480Z,7.14
2023-03-27T18:25:18.826Z,7.19
2023-03-27T18:30:34.833Z,4.73
2023-03-27T18:41:59.278Z,7.06
2023-03-27T18:47:31.328Z,5.47
2023-03-27T18:53:07.025Z,4.00
2023-03-27T19:19:35.392Z,6.68
2023-03-27T19:25:12.301Z,5.33
2023-03-27T19:30:25.659Z,6.42
2023-03-27T19:35:48.565Z,4.55
2023-03-27T19:41:23.704Z,4.08
2023-03-27T19:46:30.969Z,6.25
2023-03-27T19:52:25.524Z,6.22
2023-03-27T19:57:45.350Z,5.69
2023-03-27T20:02:49.363Z,6.25
2023-03-27T20:07:52.085Z,6.23
2023-03-27T20:12:54.705Z,6.35
2023-03-27T20:17:59.161Z,6.28
2023-03-27T20:23:02.583Z,6.18
2023-03-27T20:28:07.299Z,6.11
2023-03-27T20:33:11.301Z,5.98
2023-03-27T20:38:14.621Z,5.97
2023-03-27T20:43:19.386Z,5.90
2023-03-27T20:48:23.274Z,5.99
2023-03-27T20:53:30.999Z,5.95
2023-03-27T20:58:36.624Z,5.83
2023-03-27T21:03:46.360Z,5.85
2023-03-27T21:08:48.959Z,5.70
2023-03-27T21:13:51.499Z,5.71
2023-03-27T21:18:55.502Z,5.64
2023-03-27T21:23:58.067Z,5.59
2023-03-27T21:29:00.677Z,5.65
2023-03-27T21:34:04.609Z,5.61
2023-03-27T21:39:08.483Z,5.64
2023-03-27T21:44:11.098Z,5.58
2023-03-27T21:49:16.075Z,5.56
2023-03-27T21:54:18.658Z,5.63
2023-03-27T21:59:21.223Z,5.69
2023-03-27T22:04:26.711Z,5.68
2023-03-27T22:09:29.728Z,5.69
2023-03-27T22:14:32.535Z,5.70
2023-03-27T22:19:36.610Z,5.58
2023-03-27T22:24:39.427Z,5.55
2023-03-27T22:29:41.987Z,5.58
2023-03-27T22:34:48.356Z,5.57
2023-03-27T22:39:51.394Z,5.58
2023-03-27T22:44:53.910Z,5.46
2023-03-27T22:49:57.956Z,5.47
2023-03-27T22:55:00.988Z,5.47
2023-03-27T23:00:03.770Z,5.37
2023-03-27T23:05:08.982Z,5.33
2023-03-27T23:10:11.785Z,5.16
2023-03-27T23:15:14.395Z,5.19
2023-03-27T23:20:18.774Z,5.12
2023-03-27T23:25:21.857Z,5.10
2023-03-27T23:30:24.626Z,5.09
2023-03-27T23:35:28.566Z,5.07
2023-03-27T23:40:34.873Z,5.00
2023-03-27T23:45:37.712Z,4.85
2023-03-27T23:50:41.777Z,4.81
2023-03-27T23:55:44.366Z,4.86
